Time;durP1;ratioP1;P1;durP2;ratioP2;P2;SDS_P1;SDS_P2;PMS_P1;PMS_P2;Temp;Humidity;BMP_temperature;BMP_pressure;BME280_temperature;BME280_humidity;BME280_pressure;Samples;Min_cycle;Max_cycle;Signal;HPM_P1;HPM_P2
2023/04/28 00:00:52;;;;;;;5.60;5.10;;;11.40;99.90;;;;;;6141908;23;20182;-74
2023/04/28 00:03:19;;;;;;;7.22;6.03;;;11.40;99.90;;;;;;6137731;23;20635;-74
2023/04/28 00:05:48;;;;;;;5.85;5.35;;;11.40;99.90;;;;;;6132815;23;20579;-74
2023/04/28 00:08:15;;;;;;;6.30;5.70;;;11.40;99.90;;;;;;6126942;23;20290;-74
2023/04/28 00:10:44;;;;;;;5.85;5.15;;;11.50;99.90;;;;;;6139963;23;20297;-74
2023/04/28 00:13:11;;;;;;;6.53;5.00;;;11.50;99.90;;;;;;6145925;23;20236;-74
2023/04/28 00:15:38;;;;;;;5.93;5.32;;;11.50;99.90;;;;;;6134478;23;20278;-74
2023/04/28 00:18:05;;;;;;;5.50;5.00;;;11.50;99.90;;;;;;6142977;23;20214;-74
2023/04/28 00:20:32;;;;;;;9.07;5.40;;;11.50;99.90;;;;;;6130691;23;20698;-74
2023/04/28 00:22:59;;;;;;;5.75;4.78;;;11.50;99.90;;;;;;6130232;23;20733;-74
2023/04/28 00:25:26;;;;;;;6.60;5.00;;;11.50;99.90;;;;;;6139520;23;20262;-74
2023/04/28 00:27:54;;;;;;;5.00;4.50;;;11.50;99.90;;;;;;6145858;23;20241;-74
2023/04/28 00:30:24;;;;;;;4.95;4.57;;;11.50;99.90;;;;;;6131159;23;20298;-74
2023/04/28 00:32:51;;;;;;;4.82;4.35;;;11.40;99.90;;;;;;6143129;23;20198;-74
2023/04/28 00:35:18;;;;;;;5.03;4.53;;;11.40;99.90;;;;;;6141788;23;20573;-74
2023/04/28 00:37:45;;;;;;;5.60;4.65;;;11.40;99.90;;;;;;6135069;23;20242;-74
2023/04/28 00:40:13;;;;;;;5.55;5.05;;;11.40;99.90;;;;;;6138716;23;20639;-74
2023/04/28 00:42:40;;;;;;;5.20;4.80;;;11.40;99.90;;;;;;6137425;23;20227;-74
2023/04/28 00:45:10;;;;;;;6.25;4.93;;;11.50;99.90;;;;;;6138110;23;20214;-74
2023/04/28 00:47:37;;;;;;;5.13;4.30;;;11.40;99.90;;;;;;6140496;23;20202;-74
2023/04/28 00:50:06;;;;;;;4.43;4.07;;;11.40;99.90;;;;;;6142881;23;20211;-74
2023/04/28 00:52:33;;;;;;;4.75;4.20;;;11.40;99.90;;;;;;6146341;23;20186;-74
2023/04/28 00:55:00;;;;;;;4.80;4.30;;;11.40;99.90;;;;;;6127688;23;20211;-74
2023/04/28 00:57:27;;;;;;;5.55;4.40;;;11.40;99.90;;;;;;6133221;23;20244;-74
2023/04/28 00:59:54;;;;;;;4.70;4.30;;;11.40;99.90;;;;;;6142057;23;20187;-75
2023/04/28 01:02:23;;;;;;;5.65;4.72;;;11.40;99.90;;;;;;6138814;23;20265;-74
2023/04/28 01:04:51;;;;;;;4.25;3.95;;;11.40;99.90;;;;;;6138870;23;20191;-74
2023/04/28 01:07:18;;;;;;;4.88;4.47;;;11.40;99.90;;;;;;6138387;23;20205;-74
2023/04/28 01:09:46;;;;;;;5.75;4.40;;;11.40;99.90;;;;;;6141120;23;20186;-74
2023/04/28 01:12:13;;;;;;;6.20;4.65;;;11.40;99.90;;;;;;6129522;23;20190;-74
2023/04/28 01:14:41;;;;;;;5.22;4.70;;;11.40;99.90;;;;;;6127202;23;20225;-74
2023/04/28 01:17:09;;;;;;;9.77;4.72;;;11.40;99.90;;;;;;6140332;23;20262;-74
2023/04/28 01:19:37;;;;;;;6.32;5.00;;;11.40;99.90;;;;;;6136657;23;20318;-74
2023/04/28 01:22:04;;;;;;;6.50;5.03;;;11.40;99.90;;;;;;6129955;23;20274;-74
2023/04/28 01:24:32;;;;;;;5.38;4.88;;;11.50;99.90;;;;;;6132942;23;20220;-74
2023/04/28 01:26:59;;;;;;;5.30;4.78;;;11.50;99.90;;;;;;6136496;23;20210;-74
2023/04/28 01:29:27;;;;;;;6.20;5.00;;;11.50;99.90;;;;;;6136622;23;20233;-74
2023/04/28 01:31:54;;;;;;;5.43;4.93;;;11.50;99.90;;;;;;6136937;23;20294;-74
2023/04/28 01:34:21;;;;;;;6.75;4.45;;;11.50;99.90;;;;;;6142192;23;20179;-74
2023/04/28 01:36:48;;;;;;;4.85;4.40;;;11.50;99.90;;;;;;6141177;23;20190;-74
2023/04/28 01:39:16;;;;;;;5.35;4.95;;;11.50;99.90;;;;;;6140102;23;20605;-74
2023/04/28 01:41:44;;;;;;;6.78;4.45;;;11.50;99.90;;;;;;6128446;23;20191;-74
2023/04/28 01:44:12;;;;;;;4.78;4.38;;;11.60;99.90;;;;;;6126722;23;20237;-74
2023/04/28 01:46:39;;;;;;;4.82;4.32;;;11.60;99.90;;;;;;6129377;23;20183;-74
2023/04/28 01:49:05;;;;;;;4.93;4.53;;;11.60;99.90;;;;;;6134688;23;20202;-74
2023/04/28 01:51:33;;;;;;;4.95;4.55;;;11.60;99.90;;;;;;6142691;23;20562;-74
2023/04/28 01:53:59;;;;;;;5.35;4.50;;;11.60;99.90;;;;;;6140490;23;20717;-74
2023/04/28 01:56:26;;;;;;;5.43;4.50;;;11.60;99.90;;;;;;6133387;23;20201;-74
2023/04/28 01:58:55;;;;;;;4.63;4.20;;;11.60;99.90;;;;;;6137401;23;20210;-74
2023/04/28 02:01:22;;;;;;;5.38;4.65;;;11.60;99.90;;;;;;6127794;23;20218;-74
2023/04/28 02:03:49;;;;;;;4.38;4.05;;;11.60;99.90;;;;;;6137621;23;20186;-74
2023/04/28 02:06:16;;;;;;;5.03;4.40;;;11.70;99.90;;;;;;6133747;23;20576;-74
2023/04/28 02:08:43;;;;;;;5.78;4.70;;;11.60;99.90;;;;;;6138410;23;20564;-74
2023/04/28 02:11:10;;;;;;;5.10;4.70;;;11.70;99.90;;;;;;6127503;23;20215;-74
2023/04/28 02:13:37;;;;;;;4.35;3.95;;;11.70;99.90;;;;;;6138501;23;21124;-74
2023/04/28 02:16:06;;;;;;;4.47;4.07;;;11.70;99.90;;;;;;6137847;23;20190;-74
2023/04/28 02:18:34;;;;;;;4.05;3.65;;;11.70;99.90;;;;;;6137736;23;20405;-72
2023/04/28 02:21:09;;;;;;;4.43;3.92;;;11.70;99.90;;;;;;6144657;23;20186;-72
2023/04/28 02:23:36;;;;;;;5.35;4.53;;;11.80;99.90;;;;;;6139738;23;20207;-74
2023/04/28 02:26:03;;;;;;;4.22;3.90;;;11.80;99.90;;;;;;6143205;23;20182;-74
2023/04/28 02:28:30;;;;;;;5.05;4.20;;;11.80;99.90;;;;;;6141632;23;20712;-74
2023/04/28 02:31:05;;;;;;;4.60;4.20;;;11.80;99.90;;;;;;6143034;23;20248;-74
2023/04/28 02:33:33;;;;;;;4.65;4.25;;;11.80;99.90;;;;;;6142250;23;20546;-74
2023/04/28 02:36:00;;;;;;;4.57;4.27;;;11.80;99.90;;;;;;6146138;23;20198;-74
2023/04/28 02:38:27;;;;;;;5.63;4.13;;;11.80;99.90;;;;;;6136962;23;21780;-74
2023/04/28 02:41:01;;;;;;;5.13;4.68;;;11.80;99.90;;;;;;6127432;23;20218;-74
2023/04/28 02:43:28;;;;;;;4.35;3.95;;;11.80;99.90;;;;;;6124966;23;20608;-74
2023/04/28 02:45:55;;;;;;;5.10;4.60;;;11.80;99.90;;;;;;6145982;23;20216;-75
2023/04/28 02:48:25;;;;;;;6.93;4.05;;;11.80;99.90;;;;;;6142824;23;20207;-73
2023/04/28 02:50:52;;;;;;;4.40;4.00;;;11.80;99.90;;;;;;6141929;23;20218;-72
2023/04/28 02:53:20;;;;;;;4.60;4.20;;;11.80;99.90;;;;;;6130919;23;20283;-72
2023/04/28 02:55:47;;;;;;;4.78;4.18;;;11.90;99.90;;;;;;6138676;23;20187;-74
2023/04/28 02:58:14;;;;;;;4.63;4.23;;;11.90;99.90;;;;;;6134824;23;20238;-74
2023/04/28 03:00:41;;;;;;;4.73;4.33;;;12.00;99.90;;;;;;6133418;23;20595;-75
2023/04/28 03:03:08;;;;;;;4.40;4.00;;;12.10;99.90;;;;;;6133675;23;20487;-74
2023/04/28 03:05:37;;;;;;;4.20;3.80;;;12.20;99.90;;;;;;6128527;23;20521;-74
2023/04/28 03:08:04;;;;;;;4.40;4.10;;;12.20;99.90;;;;;;6132401;23;20461;-74
2023/04/28 03:10:31;;;;;;;5.10;4.60;;;12.30;99.90;;;;;;6127092;23;20430;-74
2023/04/28 03:12:58;;;;;;;5.28;4.88;;;12.50;99.90;;;;;;6136809;23;20529;-73
2023/04/28 03:15:25;;;;;;;5.33;4.90;;;12.40;99.90;;;;;;6128510;23;20182;-73
2023/04/28 03:17:52;;;;;;;5.03;4.50;;;12.30;99.90;;;;;;6130930;23;20477;-73
2023/04/28 03:20:19;;;;;;;5.05;4.43;;;12.30;99.90;;;;;;6128569;23;20460;-73
2023/04/28 03:22:47;;;;;;;9.55;4.00;;;12.20;99.90;;;;;;6138594;23;20221;-73
2023/04/28 03:25:14;;;;;;;5.70;5.13;;;12.20;99.90;;;;;;6131426;23;20517;-70
2023/04/28 03:27:41;;;;;;;4.87;4.47;;;12.20;99.90;;;;;;6139694;23;20622;-70
2023/04/28 03:30:10;;;;;;;5.10;4.67;;;12.20;99.90;;;;;;6128188;23;20434;-72
2023/04/28 03:32:37;;;;;;;4.88;4.47;;;12.20;99.90;;;;;;6145494;23;20516;-73
2023/04/28 03:35:04;;;;;;;5.23;4.73;;;12.20;99.90;;;;;;6140675;23;20187;-72
2023/04/28 03:37:31;;;;;;;5.30;4.90;;;12.20;99.90;;;;;;6148482;23;20429;-72
2023/04/28 03:40:00;;;;;;;4.40;4.00;;;12.10;99.90;;;;;;6137873;23;20265;-72
2023/04/28 03:42:27;;;;;;;5.63;4.90;;;12.00;99.90;;;;;;6143307;23;20666;-72
2023/04/28 03:44:54;;;;;;;5.53;5.03;;;12.00;99.90;;;;;;6138439;23;20179;-72
2023/04/28 03:47:21;;;;;;;5.03;4.63;;;12.00;99.90;;;;;;6139447;23;20320;-72
2023/04/28 03:49:48;;;;;;;5.13;4.72;;;11.90;99.90;;;;;;6134937;23;20265;-72
2023/04/28 03:52:15;;;;;;;5.72;5.22;;;11.90;99.90;;;;;;6138714;23;20210;-72
2023/04/28 03:54:42;;;;;;;5.73;5.10;;;11.70;99.90;;;;;;6129225;23;20195;-72
2023/04/28 03:57:11;;;;;;;5.30;4.90;;;11.70;99.90;;;;;;6138145;23;20927;-72
2023/04/28 03:59:38;;;;;;;5.95;5.55;;;11.70;99.90;;;;;;6144378;23;20261;-72
2023/04/28 04:02:05;;;;;;;6.20;5.70;;;11.60;99.90;;;;;;6138765;23;20651;-72
2023/04/28 04:04:32;;;;;;;6.18;5.65;;;11.50;99.90;;;;;;6132448;23;20193;-72
2023/04/28 04:07:00;;;;;;;5.85;5.25;;;11.50;99.90;;;;;;6142146;23;20194;-72
2023/04/28 04:09:27;;;;;;;5.50;5.10;;;11.50;99.90;;;;;;6136058;23;20214;-72
2023/04/28 04:11:54;;;;;;;7.05;5.97;;;11.50;99.90;;;;;;6134496;23;20239;-71
2023/04/28 04:14:22;;;;;;;6.10;5.50;;;11.40;99.90;;;;;;6138872;23;20240;-72
2023/04/28 04:16:49;;;;;;;6.57;5.97;;;11.40;99.90;;;;;;6137335;23;20270;-72
2023/04/28 04:19:16;;;;;;;5.60;5.20;;;11.40;99.90;;;;;;6132311;23;20242;-71
2023/04/28 04:21:43;;;;;;;6.07;5.57;;;11.40;99.90;;;;;;6119153;23;20187;-73
2023/04/28 04:24:10;;;;;;;6.10;5.60;;;11.30;99.90;;;;;;6134886;23;20186;-72
2023/04/28 04:26:37;;;;;;;5.90;5.40;;;11.40;99.90;;;;;;6122235;23;20188;-72
2023/04/28 04:29:05;;;;;;;6.30;5.70;;;11.30;99.90;;;;;;6144589;23;20263;-73
2023/04/28 04:31:33;;;;;;;6.53;5.90;;;11.30;99.90;;;;;;6139641;23;20538;-73
2023/04/28 04:34:00;;;;;;;6.05;5.55;;;11.30;99.90;;;;;;6144741;23;20178;-73
2023/04/28 04:36:27;;;;;;;6.05;5.55;;;11.30;99.90;;;;;;6133713;23;20221;-73
2023/04/28 04:38:54;;;;;;;6.15;5.55;;;11.20;99.90;;;;;;6138899;23;20202;-73
2023/04/28 04:41:21;;;;;;;6.40;5.80;;;11.20;99.90;;;;;;6134436;23;20242;-73
2023/04/28 04:43:48;;;;;;;5.68;5.18;;;11.20;99.90;;;;;;6139510;23;20783;-73
2023/04/28 04:46:15;;;;;;;6.50;5.95;;;11.20;99.90;;;;;;6147382;23;20516;-72
2023/04/28 04:48:44;;;;;;;6.25;5.63;;;11.10;99.90;;;;;;6135492;23;21380;-74
2023/04/28 04:51:11;;;;;;;5.50;5.00;;;11.10;99.90;;;;;;6126620;23;20213;-78
2023/04/28 04:53:38;;;;;;;6.32;5.70;;;11.20;99.90;;;;;;6139448;23;20195;-72
2023/04/28 04:56:06;;;;;;;6.00;5.38;;;11.30;99.90;;;;;;6134075;23;20187;-80
2023/04/28 04:58:33;;;;;;;6.15;5.65;;;11.30;99.90;;;;;;6125994;23;20772;-72
2023/04/28 05:01:00;;;;;;;5.80;5.40;;;11.20;99.90;;;;;;6114031;23;20245;-72
2023/04/28 05:03:27;;;;;;;7.68;6.07;;;11.20;99.90;;;;;;6123427;23;20194;-72
2023/04/28 05:05:55;;;;;;;6.53;5.93;;;11.20;99.90;;;;;;6122479;23;20188;-72
2023/04/28 05:08:22;;;;;;;6.68;6.07;;;11.10;99.90;;;;;;6142972;23;20339;-72
2023/04/28 05:10:50;;;;;;;7.00;6.35;;;11.10;99.90;;;;;;6127383;23;20274;-83
2023/04/28 05:13:17;;;;;;;8.20;6.72;;;11.30;99.90;;;;;;6105560;23;20282;-83
2023/04/28 05:15:44;;;;;;;7.13;6.32;;;11.10;99.90;;;;;;6138683;23;20195;-83
2023/04/28 05:18:12;;;;;;;6.95;6.35;;;11.10;99.90;;;;;;6131564;23;20237;-71
2023/04/28 05:20:39;;;;;;;7.15;6.45;;;11.10;99.90;;;;;;6134431;23;20190;-72
2023/04/28 05:23:08;;;;;;;7.70;6.90;;;11.10;99.90;;;;;;6134605;23;20270;-71
2023/04/28 05:25:35;;;;;;;7.15;6.55;;;11.00;99.90;;;;;;6140449;23;20179;-72
2023/04/28 05:28:06;;;;;;;7.43;6.70;;;11.00;99.90;;;;;;6137363;23;20694;-71
2023/04/28 05:30:33;;;;;;;7.28;6.65;;;11.00;99.90;;;;;;6147246;23;20191;-71
2023/04/28 05:33:00;;;;;;;7.68;6.97;;;11.00;99.90;;;;;;6132023;23;20210;-72
2023/04/28 05:35:27;;;;;;;8.35;7.60;;;11.00;99.90;;;;;;6134480;23;20179;-71
2023/04/28 05:37:54;;;;;;;10.02;7.35;;;11.00;99.90;;;;;;6142662;23;20238;-77
2023/04/28 05:40:22;;;;;;;8.20;7.47;;;11.00;99.90;;;;;;6128570;23;21144;-72
2023/04/28 05:42:50;;;;;;;9.43;8.60;;;11.10;99.90;;;;;;6135865;23;20194;-72
2023/04/28 05:45:17;;;;;;;9.02;8.13;;;11.10;99.90;;;;;;6135077;23;20199;-72
2023/04/28 05:47:44;;;;;;;8.40;7.55;;;11.10;99.90;;;;;;6136737;23;20614;-72
2023/04/28 05:50:11;;;;;;;8.60;7.75;;;11.10;99.90;;;;;;6142693;23;20178;-72
2023/04/28 05:52:38;;;;;;;9.27;8.43;;;11.10;99.90;;;;;;6144003;23;20289;-72
2023/04/28 05:55:07;;;;;;;9.73;8.85;;;11.20;99.90;;;;;;6144480;23;20270;-72
2023/04/28 05:57:36;;;;;;;8.43;7.63;;;11.20;99.90;;;;;;6143360;23;20225;-73
2023/04/28 06:00:03;;;;;;;9.07;8.30;;;11.20;99.90;;;;;;6136146;23;20293;-72
2023/04/28 06:02:30;;;;;;;10.30;9.30;;;11.20;99.90;;;;;;6131297;23;20305;-74
2023/04/28 06:04:57;;;;;;;11.07;9.95;;;11.20;99.90;;;;;;6131502;23;20266;-74
2023/04/28 06:07:24;;;;;;;10.65;9.65;;;11.20;99.90;;;;;;6130279;23;20241;-74
2023/04/28 06:09:51;;;;;;;12.57;10.23;;;11.30;99.90;;;;;;6133613;23;20183;-74
2023/04/28 06:12:18;;;;;;;9.65;8.75;;;11.20;99.90;;;;;;6132920;23;20207;-73
2023/04/28 06:14:46;;;;;;;11.73;10.70;;;11.10;99.90;;;;;;6134922;23;20198;-73
2023/04/28 06:17:13;;;;;;;13.85;10.65;;;11.10;99.90;;;;;;6132954;23;20298;-73
2023/04/28 06:19:40;;;;;;;10.20;9.27;;;11.10;99.90;;;;;;6130160;23;20237;-73
2023/04/28 06:22:07;;;;;;;11.05;10.05;;;11.10;99.90;;;;;;6131084;23;20205;-73
2023/04/28 06:24:34;;;;;;;11.75;10.52;;;11.10;99.90;;;;;;6138957;23;20619;-74
2023/04/28 06:27:02;;;;;;;12.48;11.38;;;11.10;99.90;;;;;;6142214;23;20682;-73
2023/04/28 06:29:29;;;;;;;11.32;10.32;;;11.10;99.90;;;;;;6146800;23;20220;-74
2023/04/28 06:31:57;;;;;;;11.20;10.10;;;11.20;99.90;;;;;;6139097;23;20211;-73
2023/04/28 06:34:27;;;;;;;11.55;10.45;;;11.20;99.90;;;;;;6145945;23;20183;-74
2023/04/28 06:36:54;;;;;;;12.90;11.70;;;11.20;99.90;;;;;;6127967;23;20384;-74
2023/04/28 06:39:22;;;;;;;12.15;10.95;;;11.20;99.90;;;;;;6130511;23;20202;-73
2023/04/28 06:41:49;;;;;;;13.60;12.30;;;11.20;99.90;;;;;;6132526;23;20587;-73
2023/04/28 06:44:16;;;;;;;12.57;11.32;;;11.30;99.90;;;;;;6126263;23;20178;-74
2023/04/28 06:46:43;;;;;;;12.05;11.05;;;11.30;99.90;;;;;;6135126;23;20293;-72
2023/04/28 06:49:11;;;;;;;12.70;11.43;;;11.40;99.90;;;;;;6131386;23;20183;-72
2023/04/28 06:51:38;;;;;;;12.63;11.32;;;11.40;99.90;;;;;;6132891;23;20183;-72
2023/04/28 06:54:05;;;;;;;12.57;11.38;;;11.40;99.90;;;;;;6133316;23;20270;-72
2023/04/28 06:56:32;;;;;;;11.70;10.70;;;11.40;99.90;;;;;;6130035;23;20186;-72
2023/04/28 06:58:59;;;;;;;11.60;10.50;;;11.50;99.90;;;;;;6143766;23;20269;-72
2023/04/28 07:01:26;;;;;;;11.60;10.60;;;11.70;99.90;;;;;;6141976;23;20185;-74
2023/04/28 07:03:54;;;;;;;10.80;10.00;;;11.50;99.90;;;;;;6141337;23;20195;-72
2023/04/28 07:06:22;;;;;;;10.90;9.82;;;11.50;99.90;;;;;;6135547;23;20835;-72
2023/04/28 07:08:49;;;;;;;15.00;11.25;;;11.50;99.90;;;;;;6144062;23;20273;-73
2023/04/28 07:11:16;;;;;;;12.55;11.35;;;11.40;99.90;;;;;;6129595;23;20581;-72
2023/04/28 07:13:45;;;;;;;11.52;10.63;;;11.50;99.90;;;;;;6132811;23;20221;-72
2023/04/28 07:16:11;;;;;;;13.40;12.18;;;11.50;99.90;;;;;;6134176;23;20252;-72
2023/04/28 07:18:39;;;;;;;13.23;12.02;;;11.50;99.90;;;;;;6141335;23;20280;-72
2023/04/28 07:21:06;;;;;;;12.02;10.85;;;11.50;99.90;;;;;;6132560;23;20217;-71
2023/04/28 07:23:34;;;;;;;12.82;11.68;;;11.60;99.90;;;;;;6140685;23;20653;-71
2023/04/28 07:26:01;;;;;;;11.40;10.50;;;11.60;99.90;;;;;;6128585;23;20218;-71
2023/04/28 07:28:28;;;;;;;11.57;10.68;;;11.60;99.90;;;;;;6137085;23;20261;-71
2023/04/28 07:30:56;;;;;;;13.10;11.90;;;11.60;99.90;;;;;;6134408;23;20644;-71
2023/04/28 07:33:23;;;;;;;13.15;11.82;;;11.60;99.90;;;;;;6135098;23;20551;-72
2023/04/28 07:35:51;;;;;;;10.65;9.73;;;11.60;99.90;;;;;;6137839;23;20191;-71
2023/04/28 07:38:19;;;;;;;11.85;10.65;;;11.70;99.90;;;;;;6132621;23;20265;-71
2023/04/28 07:40:48;;;;;;;12.80;11.50;;;11.70;99.90;;;;;;6136408;23;20474;-71
2023/04/28 07:43:15;;;;;;;10.60;9.70;;;11.70;99.90;;;;;;6131023;23;20236;-72
2023/04/28 07:45:44;;;;;;;11.32;10.20;;;11.70;99.90;;;;;;6143409;23;20265;-71
2023/04/28 07:48:11;;;;;;;11.40;10.40;;;11.70;99.90;;;;;;6139752;23;20712;-71
2023/04/28 07:50:38;;;;;;;11.55;10.55;;;11.70;99.90;;;;;;6131490;23;20186;-71
2023/04/28 07:53:05;;;;;;;11.15;10.15;;;11.70;99.90;;;;;;6129714;23;20208;-71
2023/04/28 07:55:32;;;;;;;11.20;10.30;;;11.90;99.90;;;;;;6135721;23;20189;-72
2023/04/28 07:58:00;;;;;;;12.05;11.15;;;11.90;99.90;;;;;;6134304;23;20210;-72
2023/04/28 08:00:27;;;;;;;11.53;10.43;;;12.10;99.90;;;;;;6135339;23;20186;-71
2023/04/28 08:02:55;;;;;;;10.43;9.52;;;12.20;99.90;;;;;;6136998;23;20436;-72
2023/04/28 08:05:22;;;;;;;10.15;9.25;;;12.20;99.90;;;;;;6141900;23;21379;-72
2023/04/28 08:07:49;;;;;;;10.30;9.40;;;12.30;99.90;;;;;;6141170;23;20566;-71
2023/04/28 08:10:16;;;;;;;10.53;9.43;;;12.30;99.90;;;;;;6134877;23;20515;-71
2023/04/28 08:12:44;;;;;;;13.23;9.90;;;12.30;99.90;;;;;;6137225;23;20998;-71
2023/04/28 08:15:12;;;;;;;12.20;10.27;;;12.30;99.90;;;;;;6124880;23;20446;-71
2023/04/28 08:17:40;;;;;;;9.77;8.97;;;12.40;99.90;;;;;;6136132;23;20460;-70
2023/04/28 08:20:08;;;;;;;9.90;9.10;;;12.50;99.90;;;;;;6138143;23;20764;-71
2023/04/28 08:22:35;;;;;;;12.43;10.20;;;12.50;99.90;;;;;;6131724;23;20433;-71
2023/04/28 08:25:02;;;;;;;11.73;9.23;;;12.40;99.90;;;;;;6137239;23;20437;-72
2023/04/28 08:27:30;;;;;;;8.90;8.20;;;12.40;99.90;;;;;;6143104;23;20453;-71
2023/04/28 08:29:57;;;;;;;9.50;8.70;;;12.30;99.90;;;;;;6143245;23;20522;-71
2023/04/28 08:32:26;;;;;;;10.80;9.80;;;12.10;99.90;;;;;;6141985;23;20267;-71
2023/04/28 08:34:52;;;;;;;10.10;9.10;;;12.10;99.90;;;;;;6142056;23;21419;-71
2023/04/28 08:37:20;;;;;;;11.27;10.33;;;12.10;99.90;;;;;;6144556;23;20484;-71
2023/04/28 08:39:47;;;;;;;10.90;9.90;;;12.10;99.90;;;;;;6136311;23;20436;-71
2023/04/28 08:42:14;;;;;;;12.10;11.10;;;12.10;99.90;;;;;;6142598;23;20194;-71
2023/04/28 08:44:41;;;;;;;11.98;10.77;;;12.30;99.90;;;;;;6137024;23;20658;-71
2023/04/28 08:47:12;;;;;;;11.27;10.37;;;12.10;99.90;;;;;;6141926;23;20235;-72
2023/04/28 08:49:41;;;;;;;11.23;10.32;;;12.10;99.90;;;;;;6129715;23;20521;-71
2023/04/28 08:52:11;;;;;;;12.65;11.48;;;12.10;99.90;;;;;;6139148;23;20243;-70
2023/04/28 08:54:40;;;;;;;12.67;11.47;;;12.20;99.90;;;;;;6137081;23;20220;-72
2023/04/28 08:57:09;;;;;;;12.65;11.55;;;12.30;99.90;;;;;;6128079;23;20529;-71
2023/04/28 08:59:39;;;;;;;13.27;12.07;;;12.30;99.90;;;;;;6141525;23;20188;-72
2023/04/28 09:02:08;;;;;;;11.33;10.40;;;12.40;99.90;;;;;;6142181;23;21006;-72
2023/04/28 09:04:35;;;;;;;11.97;10.97;;;12.70;99.90;;;;;;6136316;23;20466;-72
2023/04/28 09:07:03;;;;;;;12.30;11.20;;;12.60;99.90;;;;;;6132924;23;20538;-72
2023/04/28 09:09:31;;;;;;;12.13;11.03;;;12.60;99.90;;;;;;6132775;23;20430;-72
2023/04/28 09:11:59;;;;;;;10.23;9.43;;;12.50;99.90;;;;;;6140740;23;20960;-72
2023/04/28 09:14:27;;;;;;;12.50;11.50;;;12.60;99.90;;;;;;6134898;23;20469;-73
2023/04/28 09:16:55;;;;;;;11.13;10.23;;;12.60;99.90;;;;;;6132841;23;20542;-72
2023/04/28 09:19:22;;;;;;;14.63;13.33;;;12.70;99.90;;;;;;6138932;23;20435;-72
2023/04/28 09:21:52;;;;;;;11.63;10.63;;;12.70;99.90;;;;;;6133204;23;21011;-74
2023/04/28 09:24:31;;;;;;;12.80;11.70;;;12.90;99.90;;;;;;6135155;23;20442;-73
2023/04/28 09:26:58;;;;;;;12.23;11.13;;;13.00;99.90;;;;;;6132928;23;20461;-73
2023/04/28 09:29:26;;;;;;;10.77;9.80;;;13.10;99.90;;;;;;6136943;23;20512;-72
2023/04/28 09:31:53;;;;;;;13.87;12.40;;;13.20;99.90;;;;;;6145505;23;20432;-73
2023/04/28 09:34:20;;;;;;;9.57;8.77;;;13.30;99.90;;;;;;6140412;23;20478;-72
2023/04/28 09:36:47;;;;;;;9.00;8.30;;;13.50;99.90;;;;;;6138702;23;20550;-72
2023/04/28 09:39:15;;;;;;;9.87;8.97;;;13.50;99.90;;;;;;6147012;23;21212;-72
2023/04/28 09:41:44;;;;;;;10.00;8.67;;;13.50;99.90;;;;;;6141428;23;20438;-72
2023/04/28 09:44:15;;;;;;;9.47;8.67;;;13.60;99.90;;;;;;6133551;23;20518;-73
2023/04/28 09:46:43;;;;;;;9.10;8.40;;;13.60;99.90;;;;;;6142822;23;20451;-73
2023/04/28 09:49:10;;;;;;;11.30;10.30;;;13.60;99.90;;;;;;6149259;23;20836;-73
2023/04/28 09:51:38;;;;;;;10.47;9.43;;;13.50;99.90;;;;;;6135678;23;20461;-72
2023/04/28 09:54:05;;;;;;;10.33;9.33;;;13.60;99.90;;;;;;6136317;23;20470;-72
2023/04/28 09:56:37;;;;;;;6.50;5.97;;;13.60;99.90;;;;;;6141434;23;20454;-72
2023/04/28 09:59:05;;;;;;;6.10;5.60;;;13.70;99.90;;;;;;6138948;23;20450;-74
2023/04/28 10:01:36;;;;;;;6.40;5.90;;;13.80;99.90;;;;;;6141110;23;20435;-73
2023/04/28 10:04:05;;;;;;;5.80;5.37;;;13.80;99.90;;;;;;6148774;23;20420;-73
2023/04/28 10:06:35;;;;;;;6.13;5.73;;;14.00;99.90;;;;;;6141995;23;20450;-74
2023/04/28 10:09:03;;;;;;;6.37;5.87;;;14.00;99.90;;;;;;6146722;23;20439;-73
2023/04/28 10:11:30;;;;;;;6.00;5.27;;;14.20;99.90;;;;;;6130296;23;20434;-74
2023/04/28 10:13:57;;;;;;;4.47;4.10;;;14.40;99.90;;;;;;6142320;23;20481;-74
2023/04/28 10:16:30;;;;;;;4.70;4.33;;;14.50;99.90;;;;;;6147589;23;20838;-73
2023/04/28 10:18:57;;;;;;;6.40;5.80;;;14.40;99.90;;;;;;6142480;23;20483;-73
2023/04/28 10:21:26;;;;;;;6.37;5.87;;;14.40;99.90;;;;;;6146689;23;20439;-73
2023/04/28 10:24:03;;;;;;;7.00;6.50;;;14.40;99.90;;;;;;6149040;23;20424;-73
2023/04/28 10:27:05;;;;;;;6.80;6.20;;;14.50;99.90;;;;;;6145668;23;20441;-74
2023/04/28 10:29:33;;;;;;;6.83;6.10;;;14.60;99.90;;;;;;6147728;23;20932;-73
2023/04/28 10:32:22;;;;;;;7.80;7.20;;;15.00;99.90;;;;;;6137699;23;20440;-74
2023/04/28 10:34:49;;;;;;;7.20;6.60;;;15.00;99.90;;;;;;6141358;23;20533;-74
2023/04/28 10:37:17;;;;;;;7.50;6.90;;;15.20;99.90;;;;;;6145674;23;20440;-74
2023/04/28 10:40:27;;;;;;;8.03;7.33;;;15.50;99.90;;;;;;6135270;23;20503;-74
2023/04/28 10:42:56;;;;;;;8.27;7.60;;;15.70;99.90;;;;;;6141320;23;20559;-74
2023/04/28 10:46:05;;;;;;;4.83;4.43;;;15.80;99.90;;;;;;6142362;23;20508;-74
2023/04/28 10:49:07;;;;;;;2.20;2.10;;;15.80;99.90;;;;;;6113865;23;20505;-74
2023/04/28 10:51:34;;;;;;;1.60;1.50;;;15.90;99.90;;;;;;6138707;23;20746;-73
2023/04/28 10:54:15;;;;;;;1.70;1.60;;;15.90;99.90;;;;;;6148510;23;20463;-74
2023/04/28 10:57:23;;;;;;;1.50;1.40;;;15.90;99.90;;;;;;6144784;23;20463;-74
2023/04/28 10:59:51;;;;;;;1.87;1.20;;;16.10;99.90;;;;;;6132462;23;20503;-74
2023/04/28 11:02:51;;;;;;;1.50;1.20;;;16.10;99.90;;;;;;6137687;23;20471;-73
2023/04/28 11:05:20;;;;;;;1.03;1.00;;;16.20;99.90;;;;;;6136670;23;20442;-74
2023/04/28 11:08:31;;;;;;;1.10;1.00;;;16.40;99.90;;;;;;6149304;23;20927;-74
2023/04/28 11:11:21;;;;;;;0.90;0.90;;;16.20;99.90;;;;;;6135811;23;20610;-74
2023/04/28 11:13:49;;;;;;;0.90;0.90;;;16.30;99.90;;;;;;6136268;23;20546;-75
2023/04/28 11:16:22;;;;;;;0.90;0.90;;;16.40;99.90;;;;;;6140705;23;20459;-73
2023/04/28 11:18:51;;;;;;;1.00;0.90;;;16.40;99.90;;;;;;6139004;23;20433;-75
2023/04/28 11:21:20;;;;;;;1.20;1.00;;;16.50;99.90;;;;;;6129161;23;20809;-74
2023/04/28 11:23:48;;;;;;;1.40;1.30;;;16.50;99.90;;;;;;6138753;23;20429;-74
2023/04/28 11:26:16;;;;;;;1.83;0.90;;;16.60;99.90;;;;;;6128222;23;20535;-74
2023/04/28 11:28:51;;;;;;;1.27;1.10;;;16.80;99.90;;;;;;6144305;23;20459;-75
2023/04/28 11:31:20;;;;;;;1.23;0.90;;;16.80;99.90;;;;;;6132663;23;20441;-74
2023/04/28 11:33:53;;;;;;;1.37;0.97;;;16.80;99.90;;;;;;6134638;23;20464;-74
2023/04/28 11:36:30;;;;;;;1.20;0.80;;;16.90;99.90;;;;;;6135721;23;20535;-74
2023/04/28 11:38:58;;;;;;;1.57;0.90;;;16.90;99.90;;;;;;6139061;23;20432;-74
2023/04/28 11:41:26;;;;;;;1.00;1.00;;;16.90;99.90;;;;;;6120831;23;20521;-74
2023/04/28 11:43:53;;;;;;;0.87;0.87;;;16.90;99.90;;;;;;6133162;23;20448;-74
2023/04/28 11:46:22;;;;;;;1.00;1.00;;;17.00;99.90;;;;;;6144395;23;20460;-75
2023/04/28 11:49:00;;;;;;;2.00;1.10;;;17.00;99.90;;;;;;6141307;23;20812;-75
2023/04/28 11:51:36;;;;;;;1.27;1.07;;;17.00;99.90;;;;;;6128586;23;20506;-75
2023/04/28 11:54:06;;;;;;;1.20;1.10;;;16.90;99.90;;;;;;6136688;23;20456;-74
2023/04/28 11:56:38;;;;;;;1.20;1.10;;;16.80;99.90;;;;;;6132133;23;20437;-74
2023/04/28 11:59:07;;;;;;;1.30;1.20;;;16.80;99.90;;;;;;6124943;23;20519;-75
2023/04/28 12:01:44;;;;;;;1.20;1.10;;;16.90;99.90;;;;;;6137132;23;20440;-75
2023/04/28 12:04:12;;;;;;;1.60;1.50;;;17.00;99.90;;;;;;6139646;23;20848;-75
2023/04/28 12:06:41;;;;;;;1.30;1.20;;;17.10;99.90;;;;;;6136236;23;20978;-75
2023/04/28 12:09:20;;;;;;;2.50;2.30;;;17.20;99.90;;;;;;6145765;23;20432;-75
2023/04/28 12:11:58;;;;;;;2.00;1.70;;;17.30;99.90;;;;;;6122398;23;20464;-75
2023/04/28 12:14:26;;;;;;;1.80;1.70;;;17.30;99.90;;;;;;6134717;23;20991;-75
2023/04/28 12:16:53;;;;;;;2.13;1.80;;;17.30;99.90;;;;;;6136465;23;20461;-75
2023/04/28 12:19:20;;;;;;;2.70;2.50;;;17.50;99.90;;;;;;6128740;23;20552;-75
2023/04/28 12:22:03;;;;;;;2.60;2.27;;;17.20;99.90;;;;;;6128549;23;20437;-75
2023/04/28 12:24:31;;;;;;;1.90;1.80;;;17.10;99.90;;;;;;6144426;23;20436;-75
2023/04/28 12:27:20;;;;;;;4.77;1.70;;;17.10;99.90;;;;;;6143082;23;20468;-74
2023/04/28 12:29:48;;;;;;;1.77;1.30;;;17.00;99.90;;;;;;6134526;23;20456;-73
2023/04/28 12:32:15;;;;;;;1.20;1.10;;;16.70;99.90;;;;;;6130533;23;20941;-73
2023/04/28 12:34:44;;;;;;;2.03;1.10;;;16.80;99.90;;;;;;6133154;23;21762;-74
2023/04/28 12:37:13;;;;;;;1.40;1.20;;;16.30;99.90;;;;;;6132053;23;20476;-74
2023/04/28 12:39:41;;;;;;;1.83;1.27;;;16.20;99.90;;;;;;6132067;23;20432;-73
2023/04/28 12:42:08;;;;;;;2.40;1.10;;;15.70;99.90;;;;;;6132643;23;20511;-74
2023/04/28 12:44:36;;;;;;;1.70;1.17;;;15.50;99.90;;;;;;6131475;23;20445;-74
2023/04/28 12:47:06;;;;;;;2.03;1.20;;;15.20;99.90;;;;;;6137829;23;20464;-74
2023/04/28 12:49:33;;;;;;;1.53;1.20;;;15.10;99.90;;;;;;6137989;23;20432;-74
2023/04/28 12:52:01;;;;;;;1.57;1.10;;;15.00;99.90;;;;;;6132381;23;20437;-75